^^
Station Historical Data
Daily Summary for October 13, 2017 Units:  Both    English   Metric
« Previous Day
Next Day »
Daily Weekly Monthly Yearly Custom
  High: Low: Average:
Temperature: 62.0 °F /  16.7 °C 34.4 °F /  1.3 °C 48.3 °F /  9.1 °C
Dew Point: 44.6 °F /  7 °C 31.5 °F /  -0.3 °C 38.7 °F /  3.7 °C
Humidity: 91% 49% 71%
Wind Speed: 11.5mph /  18.5km/h - 1.8mph /  2.9km/h
Wind Gust: 11.5mph /  18.5km/h - -
Wind- - SSE
Pressure: 30.07 in /  1018.2 hPa 29.80 in /  1009 hPa -
Precipitation: 0.00 in /  0 mm    
Historical Graphs
 
 
Tabular Data for October 13, 2017
Time Temperature Dew Point Pressure Wind Wind Speed Wind Gust Humidity Rainfall Rate (Hourly) solar Conditions
00:02 45.1 °F /  7.3 °C 34.4 °F /  1.3 °C 29.90in /  1012.4hPa Calm     66% 0.00in /  0mm WeatherDisplay:10.37 W/m2 CLR
00:07 45.0 °F /  7.2 °C 35.1 °F /  1.7 °C 29.90in /  1012.4hPa Calm     68% 0.00in /  0mm WeatherDisplay:10.37 W/m2 CLR
00:12 44.6 °F /  7 °C 34.7 °F /  1.5 °C 29.90in /  1012.4hPa Calm     68% 0.00in /  0mm WeatherDisplay:10.37 W/m2 CLR
00:17 44.2 °F /  6.8 °C 34.7 °F /  1.5 °C 29.91in /  1012.8hPa Calm     69% 0.00in /  0mm WeatherDisplay:10.37 W/m2 CLR
00:22 43.8 °F /  6.6 °C 34.6 °F /  1.4 °C 29.91in /  1012.8hPa Calm     70% 0.00in /  0mm WeatherDisplay:10.37 W/m2 CLR
00:27 43.5 °F /  6.4 °C 34.7 °F /  1.5 °C 29.91in /  1012.8hPa Calm     71% 0.00in /  0mm WeatherDisplay:10.37 W/m2 CLR
00:32 43.1 °F /  6.2 °C 34.7 °F /  1.5 °C 29.91in /  1012.8hPa Calm     72% 0.00in /  0mm WeatherDisplay:10.37 W/m2 CLR
00:37 42.7 °F /  5.9 °C 34.3 °F /  1.3 °C 29.91in /  1012.8hPa Calm     72% 0.00in /  0mm WeatherDisplay:10.37 W/m2 CLR
00:42 42.4 °F /  5.8 °C 34.4 °F /  1.3 °C 29.91in /  1012.8hPa Calm     73% 0.00in /  0mm WeatherDisplay:10.37 W/m2 CLR
00:47 42.2 °F /  5.7 °C 34.2 °F /  1.2 °C 29.92in /  1013.1hPa Calm     73% 0.00in /  0mm WeatherDisplay:10.37 W/m2 CLR
00:52 41.8 °F /  5.4 °C 34.1 °F /  1.2 °C 29.92in /  1013.1hPa Calm     74% 0.00in /  0mm WeatherDisplay:10.37 W/m2 CLR
00:57 41.5 °F /  5.3 °C 34.2 °F /  1.2 °C 29.92in /  1013.1hPa Calm     75% 0.00in /  0mm WeatherDisplay:10.37 W/m2 CLR
01:02 41.2 °F /  5.1 °C 34.2 °F /  1.2 °C 29.90in /  1012.4hPa Calm     76% 0.00in /  0mm WeatherDisplay:10.37 W/m2 CLR
01:07 41.0 °F /  5 °C 34.3 °F /  1.3 °C 29.90in /  1012.4hPa Calm     77% 0.00in /  0mm WeatherDisplay:10.37 W/m2 CLR
01:12 40.7 °F /  4.8 °C 34.4 °F /  1.3 °C 29.90in /  1012.4hPa Calm     78% 0.00in /  0mm WeatherDisplay:10.37 W/m2 CLR
01:17 40.5 °F /  4.7 °C 34.8 °F /  1.6 °C 29.90in /  1012.4hPa Calm     80% 0.00in /  0mm WeatherDisplay:10.37 W/m2 CLR
01:22 40.4 °F /  4.7 °C 34.7 °F /  1.5 °C 29.92in /  1013.1hPa Calm     80% 0.00in /  0mm WeatherDisplay:10.37 W/m2 CLR
01:27 40.2 °F /  4.6 °C 34.5 °F /  1.4 °C 29.92in /  1013.1hPa Calm     80% 0.00in /  0mm WeatherDisplay:10.37 W/m2 CLR
01:32 40.1 °F /  4.5 °C 34.7 °F /  1.5 °C 29.92in /  1013.1hPa Calm     81% 0.00in /  0mm WeatherDisplay:10.37 W/m2 CLR
01:37 39.8 °F /  4.3 °C 34.1 °F /  1.2 °C 29.92in /  1013.1hPa Calm     80% 0.00in /  0mm WeatherDisplay:10.37 W/m2 CLR
01:42 39.7 °F /  4.3 °C 34.3 °F /  1.3 °C 29.92in /  1013.1hPa Calm     81% 0.00in /  0mm WeatherDisplay:10.37 W/m2 CLR
01:47 39.5 °F /  4.2 °C 34.5 °F /  1.4 °C 29.92in /  1013.1hPa Calm     82% 0.00in /  0mm WeatherDisplay:10.37 W/m2 CLR
01:52 39.4 °F /  4.1 °C 34.7 °F /  1.5 °C 29.92in /  1013.1hPa Calm     83% 0.00in /  0mm WeatherDisplay:10.37 W/m2 CLR
01:57 39.3 °F /  4.1 °C 34.6 °F /  1.4 °C 29.92in /  1013.1hPa Calm     83% 0.00in /  0mm WeatherDisplay:10.37 W/m2 CLR
02:02 39.2 °F /  4 °C 34.5 °F /  1.4 °C 29.92in /  1013.1hPa Calm     83% 0.00in /  0mm WeatherDisplay:10.37 W/m2 CLR
02:07 39.0 °F /  3.9 °C 34.6 °F /  1.4 °C 29.92in /  1013.1hPa Calm     84% 0.00in /  0mm WeatherDisplay:10.37 W/m2 CLR
02:12 38.8 °F /  3.8 °C 33.8 °F /  1 °C 29.92in /  1013.1hPa Calm     82% 0.00in /  0mm WeatherDisplay:10.37 W/m2 CLR
02:17 38.7 °F /  3.7 °C 34.0 °F /  1.1 °C 29.92in /  1013.1hPa Calm     83% 0.00in /  0mm WeatherDisplay:10.37 W/m2 CLR
02:22 38.7 °F /  3.7 °C 34.0 °F /  1.1 °C 29.92in /  1013.1hPa Calm     83% 0.00in /  0mm WeatherDisplay:10.37 W/m2 CLR
02:27 38.6 °F /  3.7 °C 34.2 °F /  1.2 °C 29.92in /  1013.1hPa Calm     84% 0.00in /  0mm WeatherDisplay:10.37 W/m2 CLR
02:32 38.6 °F /  3.7 °C 34.2 °F /  1.2 °C 29.92in /  1013.1hPa Calm     84% 0.00in /  0mm WeatherDisplay:10.37 W/m2 CLR
02:37 38.4 °F /  3.6 °C 34.0 °F /  1.1 °C 29.93in /  1013.4hPa Calm     84% 0.00in /  0mm WeatherDisplay:10.37 W/m2 CLR
02:42 38.4 °F /  3.6 °C 34.0 °F /  1.1 °C 29.93in /  1013.4hPa Calm     84% 0.00in /  0mm WeatherDisplay:10.37 W/m2 CLR
02:47 38.4 °F /  3.6 °C 34.3 °F /  1.3 °C 29.93in /  1013.4hPa Calm     85% 0.00in /  0mm WeatherDisplay:10.37 W/m2 CLR
02:52 38.4 °F /  3.6 °C 34.3 °F /  1.3 °C 29.93in /  1013.4hPa Calm     85% 0.00in /  0mm WeatherDisplay:10.37 W/m2 CLR
02:57 38.4 °F /  3.6 °C 34.0 °F /  1.1 °C 29.92in /  1013.1hPa Calm     84% 0.00in /  0mm WeatherDisplay:10.37 W/m2 CLR
03:02 38.4 °F /  3.6 °C 34.0 °F /  1.1 °C 29.93in /  1013.4hPa Calm     84% 0.00in /  0mm WeatherDisplay:10.37 W/m2 CLR
03:07 38.3 °F /  3.5 °C 33.9 °F /  1.1 °C 29.93in /  1013.4hPa Calm     84% 0.00in /  0mm WeatherDisplay:10.37 W/m2 CLR
03:12 38.3 °F /  3.5 °C 33.9 °F /  1.1 °C 29.93in /  1013.4hPa Calm     84% 0.00in /  0mm WeatherDisplay:10.37 W/m2 CLR
03:17 38.1 °F /  3.4 °C 33.4 °F /  0.8 °C 29.93in /  1013.4hPa Calm     83% 0.00in /  0mm WeatherDisplay:10.37 W/m2 CLR
03:22 37.9 °F /  3.3 °C 33.2 °F /  0.7 °C 29.93in /  1013.4hPa Calm     83% 0.00in /  0mm WeatherDisplay:10.37 W/m2 CLR
03:27 37.7 °F /  3.2 °C 33.0 °F /  0.6 °C 29.93in /  1013.4hPa Calm     83% 0.00in /  0mm WeatherDisplay:10.37 W/m2 CLR
03:32 37.5 °F /  3.1 °C 32.8 °F /  0.4 °C 29.93in /  1013.4hPa Calm     83% 0.00in /  0mm WeatherDisplay:10.37 W/m2 CLR
03:37 37.3 °F /  2.9 °C 32.6 °F /  0.3 °C 29.93in /  1013.4hPa Calm     83% 0.00in /  0mm WeatherDisplay:10.37 W/m2 CLR
03:42 37.1 °F /  2.8 °C 32.7 °F /  0.4 °C 29.93in /  1013.4hPa Calm     84% 0.00in /  0mm WeatherDisplay:10.37 W/m2 CLR
03:47 37.2 °F /  2.9 °C 33.1 °F /  0.6 °C 29.93in /  1013.4hPa Calm     85% 0.00in /  0mm WeatherDisplay:10.37 W/m2 CLR
03:52 37.3 °F /  2.9 °C 33.2 °F /  0.7 °C 29.93in /  1013.4hPa Calm     85% 0.00in /  0mm WeatherDisplay:10.37 W/m2 CLR
03:57 37.1 °F /  2.8 °C 32.7 °F /  0.4 °C 29.93in /  1013.4hPa Calm     84% 0.00in /  0mm WeatherDisplay:10.37 W/m2 CLR
04:02 37.0 °F /  2.8 °C 32.6 °F /  0.3 °C 29.93in /  1013.4hPa Calm     84% 0.00in /  0mm WeatherDisplay:10.37 W/m2 CLR
04:07 36.9 °F /  2.7 °C 32.5 °F /  0.3 °C 29.94in /  1013.8hPa Calm     84% 0.00in /  0mm WeatherDisplay:10.37 W/m2 CLR
04:12 36.8 °F /  2.7 °C 32.4 °F /  0.2 °C 29.94in /  1013.8hPa Calm     84% 0.00in /  0mm WeatherDisplay:10.37 W/m2 CLR
04:17 36.7 °F /  2.6 °C 32.3 °F /  0.2 °C 29.94in /  1013.8hPa Calm     84% 0.00in /  0mm WeatherDisplay:10.37 W/m2 CLR
04:22 36.5 °F /  2.5 °C 32.1 °F /  0.1 °C 29.95in /  1014.1hPa Calm     84% 0.00in /  0mm WeatherDisplay:10.37 W/m2 CLR
04:27 36.4 °F /  2.4 °C 32.3 °F /  0.2 °C 29.96in /  1014.4hPa Calm     85% 0.00in /  0mm WeatherDisplay:10.37 W/m2 CLR
04:32 36.3 °F /  2.4 °C 32.2 °F /  0.1 °C 29.96in /  1014.4hPa Calm     85% 0.00in /  0mm WeatherDisplay:10.37 W/m2 CLR
04:37 36.2 °F /  2.3 °C 32.1 °F /  0.1 °C 29.96in /  1014.4hPa Calm     85% 0.00in /  0mm WeatherDisplay:10.37 W/m2 CLR
04:42 36.1 °F /  2.3 °C 32.3 °F /  0.2 °C 29.96in /  1014.4hPa Calm     86% 0.00in /  0mm WeatherDisplay:10.37 W/m2 CLR
04:47 36.1 °F /  2.3 °C 32.6 °F /  0.3 °C 29.96in /  1014.4hPa Calm     87% 0.00in /  0mm WeatherDisplay:10.37 W/m2 CLR
04:52 36.1 °F /  2.3 °C 32.6 °F /  0.3 °C 29.96in /  1014.4hPa Calm     87% 0.00in /  0mm WeatherDisplay:10.37 W/m2 CLR
04:57 36.0 °F /  2.2 °C 32.5 °F /  0.3 °C 29.96in /  1014.4hPa Calm     87% 0.00in /  0mm WeatherDisplay:10.37 W/m2 CLR
05:02 35.9 °F /  2.2 °C 32.4 °F /  0.2 °C 30.00in /  1015.8hPa Calm     87% 0.00in /  0mm WeatherDisplay:10.37 W/m2 CLR
05:07 35.8 °F /  2.1 °C 32.3 °F /  0.2 °C 30.00in /  1015.8hPa Calm     87% 0.00in /  0mm WeatherDisplay:10.37 W/m2 CLR
05:12 35.8 °F /  2.1 °C 32.6 °F /  0.3 °C 30.00in /  1015.8hPa Calm     88% 0.00in /  0mm WeatherDisplay:10.37 W/m2 CLR
05:17 35.8 °F /  2.1 °C 32.6 °F /  0.3 °C 30.00in /  1015.8hPa Calm     88% 0.00in /  0mm WeatherDisplay:10.37 W/m2 CLR
05:22 35.9 °F /  2.2 °C 32.7 °F /  0.4 °C 30.00in /  1015.8hPa Calm     88% 0.00in /  0mm WeatherDisplay:10.37 W/m2 CLR
05:27 35.8 °F /  2.1 °C 32.9 °F /  0.5 °C 30.00in /  1015.8hPa Calm     89% 0.00in /  0mm WeatherDisplay:10.37 W/m2 CLR
05:32 35.7 °F /  2.1 °C 32.5 °F /  0.3 °C 30.00in /  1015.8hPa Calm     88% 0.00in /  0mm WeatherDisplay:10.37 W/m2 CLR
05:37 35.7 °F /  2.1 °C 32.5 °F /  0.3 °C 30.00in /  1015.8hPa Calm     88% 0.00in /  0mm WeatherDisplay:10.37 W/m2 CLR
05:42 35.6 °F /  2 °C 32.7 °F /  0.4 °C 30.01in /  1016.1hPa Calm     89% 0.00in /  0mm WeatherDisplay:10.37 W/m2 CLR
05:47 35.5 °F /  1.9 °C 32.6 °F /  0.3 °C 30.00in /  1015.8hPa Calm     89% 0.00in /  0mm WeatherDisplay:10.37 W/m2 CLR
05:52 35.5 °F /  1.9 °C 32.6 °F /  0.3 °C 30.00in /  1015.8hPa Calm     89% 0.00in /  0mm WeatherDisplay:10.37 W/m2 CLR
05:57 35.4 °F /  1.9 °C 32.5 °F /  0.3 °C 30.01in /  1016.1hPa Calm     89% 0.00in /  0mm WeatherDisplay:10.37 W/m2 CLR
06:02 35.3 °F /  1.8 °C 32.4 °F /  0.2 °C 30.03in /  1016.8hPa Calm     89% 0.00in /  0mm WeatherDisplay:10.37 W/m2 CLR
06:07 35.2 °F /  1.8 °C 32.3 °F /  0.2 °C 30.03in /  1016.8hPa Calm     89% 0.00in /  0mm WeatherDisplay:10.37 W/m2 CLR
06:13 35.2 °F /  1.8 °C 32.3 °F /  0.2 °C 30.04in /  1017.2hPa Calm     89% 0.00in /  0mm WeatherDisplay:10.37 W/m2 CLR
06:17 35.4 °F /  1.9 °C 32.8 °F /  0.4 °C 30.03in /  1016.8hPa Calm     90% 0.00in /  0mm WeatherDisplay:10.37 W/m2 CLR
06:23 35.4 °F /  1.9 °C 32.5 °F /  0.3 °C 30.03in /  1016.8hPa Calm     89% 0.00in /  0mm WeatherDisplay:10.37 W/m2 CLR
06:28 35.3 °F /  1.8 °C 32.4 °F /  0.2 °C 30.04in /  1017.2hPa Calm     89% 0.00in /  0mm WeatherDisplay:10.37 W/m2 CLR
06:33 35.2 °F /  1.8 °C 32.3 °F /  0.2 °C 30.04in /  1017.2hPa Calm     89% 0.00in /  0mm WeatherDisplay:10.37 W/m2 CLR
06:38 35.1 °F /  1.7 °C 32.2 °F /  0.1 °C 30.04in /  1017.2hPa Calm     89% 0.00in /  0mm WeatherDisplay:10.37 W/m2 CLR
06:43 35.0 °F /  1.7 °C 32.1 °F /  0.1 °C 30.04in /  1017.2hPa Calm     89% 0.00in /  0mm WeatherDisplay:10.37 W/m2 CLR
06:48 34.8 °F /  1.6 °C 31.9 °F /  -0.1 °C 30.04in /  1017.2hPa Calm     89% 0.00in /  0mm WeatherDisplay:10.37 W/m2 CLR
06:53 34.7 °F /  1.5 °C 31.8 °F /  -0.1 °C 30.05in /  1017.5hPa Calm     89% 0.00in /  0mm WeatherDisplay:10.37 W/m2 CLR
06:58 34.6 °F /  1.4 °C 31.7 °F /  -0.2 °C 30.05in /  1017.5hPa Calm     89% 0.00in /  0mm WeatherDisplay:10.37 W/m2 CLR
07:03 34.6 °F /  1.4 °C 31.7 °F /  -0.2 °C 30.07in /  1018.2hPa Calm     89% 0.00in /  0mm WeatherDisplay:10.37 W/m2 CLR
07:08 34.4 °F /  1.3 °C 31.5 °F /  -0.3 °C 30.06in /  1017.8hPa Calm     89% 0.00in /  0mm WeatherDisplay:10.37 W/m2 CLR
07:13 34.4 °F /  1.3 °C 31.5 °F /  -0.3 °C 30.06in /  1017.8hPa Calm     89% 0.00in /  0mm WeatherDisplay:10.37 W/m2 CLR
07:18 34.4 °F /  1.3 °C 31.8 °F /  -0.1 °C 30.06in /  1017.8hPa Calm     90% 0.00in /  0mm WeatherDisplay:10.37 W/m2 CLR
07:23 34.4 °F /  1.3 °C 31.8 °F /  -0.1 °C 30.06in /  1017.8hPa Calm     90% 0.00in /  0mm WeatherDisplay:10.37 W/m2 CLR
07:28 34.7 °F /  1.5 °C 32.1 °F /  0.1 °C 30.06in /  1017.8hPa Calm     90% 0.00in /  0mm WeatherDisplay:10.37 W/m2 CLR
07:33 34.8 °F /  1.6 °C 32.2 °F /  0.1 °C 30.06in /  1017.8hPa Calm     90% 0.00in /  0mm WeatherDisplay:10.37 W/m2 CLR
07:38 35.0 °F /  1.7 °C 32.6 °F /  0.3 °C 30.06in /  1017.8hPa Calm     91% 0.00in /  0mm WeatherDisplay:10.37 W/m2 CLR
07:43 35.5 °F /  1.9 °C 33.1 °F /  0.6 °C 30.05in /  1017.5hPa Calm     91% 0.00in /  0mm WeatherDisplay:10.37 W/m2 CLR
07:48 35.9 °F /  2.2 °C 33.5 °F /  0.8 °C 30.05in /  1017.5hPa Calm     91% 0.00in /  0mm WeatherDisplay:10.37 W/m2 CLR
07:53 36.5 °F /  2.5 °C 34.1 °F /  1.2 °C 30.05in /  1017.5hPa Calm     91% 0.00in /  0mm WeatherDisplay:10.37 W/m2 CLR
07:58 37.0 °F /  2.8 °C 34.6 °F /  1.4 °C 30.05in /  1017.5hPa Calm     91% 0.00in /  0mm WeatherDisplay:10.37 W/m2 CLR
08:03 37.7 °F /  3.2 °C 35.3 °F /  1.8 °C 30.04in /  1017.2hPa NNW 1.2mph /  1.9km/h 1.2mph /  1.9km/h 91% 0.00in /  0mm WeatherDisplay:10.37 W/m2 CLR
08:08 38.4 °F /  3.6 °C 36.0 °F /  2.2 °C 30.05in /  1017.5hPa Calm     91% 0.00in /  0mm WeatherDisplay:10.37 W/m2 CLR
08:13 39.2 °F /  4 °C 36.2 °F /  2.3 °C 30.04in /  1017.2hPa NW 2.3mph /  3.7km/h 2.3mph /  3.7km/h 89% 0.00in /  0mm WeatherDisplay:10.37 W/m2 CLR
08:18 39.7 °F /  4.3 °C 35.9 °F /  2.2 °C 30.03in /  1016.8hPa WNW 2.3mph /  3.7km/h 2.3mph /  3.7km/h 86% 0.00in /  0mm WeatherDisplay:10.37 W/m2 CLR
08:23 40.3 °F /  4.6 °C 36.4 °F /  2.4 °C 30.03in /  1016.8hPa West 3.5mph /  5.6km/h 3.5mph /  5.6km/h 86% 0.00in /  0mm WeatherDisplay:10.37 W/m2 CLR
08:28 41.1 °F /  5.1 °C 36.9 °F /  2.7 °C 30.03in /  1016.8hPa Calm     85% 0.00in /  0mm WeatherDisplay:10.37 W/m2 CLR
08:33 41.9 °F /  5.5 °C 37.1 °F /  2.8 °C 30.02in /  1016.5hPa West 1.2mph /  1.9km/h 1.2mph /  1.9km/h 83% 0.00in /  0mm WeatherDisplay:10.37 W/m2 CLR
08:38 42.8 °F /  6 °C 37.4 °F /  3 °C 30.02in /  1016.5hPa West 1.2mph /  1.9km/h   81% 0.00in /  0mm WeatherDisplay:10.37 W/m2 CLR
08:43 43.6 °F /  6.4 °C 37.5 °F /  3.1 °C 30.02in /  1016.5hPa Calm     79% 0.00in /  0mm WeatherDisplay:10.37 W/m2 CLR
08:48 44.5 °F /  6.9 °C 38.7 °F /  3.7 °C 30.02in /  1016.5hPa Calm     80% 0.00in /  0mm WeatherDisplay:10.37 W/m2 CLR
08:53 45.4 °F /  7.4 °C 38.6 °F /  3.7 °C 30.02in /  1016.5hPa Calm   0.1mph /  0.2km/h 77% 0.00in /  0mm WeatherDisplay:10.37 W/m2 CLR
08:58 46.0 °F /  7.8 °C 38.5 °F /  3.6 °C 30.01in /  1016.1hPa WNW 1.2mph /  1.9km/h   75% 0.00in /  0mm WeatherDisplay:10.37 W/m2 CLR
09:03 46.5 °F /  8.1 °C 38.7 °F /  3.7 °C 30.03in /  1016.8hPa WNW 1.2mph /  1.9km/h 1.2mph /  1.9km/h 74% 0.00in /  0mm WeatherDisplay:10.37 W/m2 CLR
09:08 47.0 °F /  8.3 °C 38.1 °F /  3.4 °C 30.02in /  1016.5hPa North 2.0mph /  3.2km/h 2.0mph /  3.2km/h 71% 0.00in /  0mm WeatherDisplay:10.37 W/m2 CLR
09:13 47.1 °F /  8.4 °C 38.5 °F /  3.6 °C 30.02in /  1016.5hPa North 1.2mph /  1.9km/h 1.2mph /  1.9km/h 72% 0.00in /  0mm WeatherDisplay:10.37 W/m2 CLR
09:18 47.0 °F /  8.3 °C 38.1 °F /  3.4 °C 30.02in /  1016.5hPa North 1.2mph /  1.9km/h 1.2mph /  1.9km/h 71% 0.00in /  0mm WeatherDisplay:10.37 W/m2 CLR
09:23 46.9 °F /  8.3 °C 38.3 °F /  3.5 °C 30.02in /  1016.5hPa North 1.2mph /  1.9km/h 1.2mph /  1.9km/h 72% 0.00in /  0mm WeatherDisplay:10.37 W/m2 CLR
09:28 47.0 °F /  8.3 °C 38.1 °F /  3.4 °C 30.02in /  1016.5hPa North 2.3mph /  3.7km/h 2.3mph /  3.7km/h 71% 0.00in /  0mm WeatherDisplay:10.37 W/m2 CLR
09:33 47.2 °F /  8.4 °C 38.6 °F /  3.7 °C 30.01in /  1016.1hPa North 2.3mph /  3.7km/h 2.3mph /  3.7km/h 72% 0.00in /  0mm WeatherDisplay:10.37 W/m2 CLR
09:38 47.3 °F /  8.5 °C 38.7 °F /  3.7 °C 30.01in /  1016.1hPa North 3.5mph /  5.6km/h 3.5mph /  5.6km/h 72% 0.00in /  0mm WeatherDisplay:10.37 W/m2 CLR
09:43 47.4 °F /  8.6 °C 38.8 °F /  3.8 °C 30.02in /  1016.5hPa North 1.2mph /  1.9km/h 1.2mph /  1.9km/h 72% 0.00in /  0mm WeatherDisplay:10.37 W/m2 CLR
09:48 47.7 °F /  8.7 °C 38.8 °F /  3.8 °C 30.01in /  1016.1hPa North 1.2mph /  1.9km/h 1.2mph /  1.9km/h 71% 0.00in /  0mm WeatherDisplay:10.37 W/m2 CLR
09:53 48.1 °F /  8.9 °C 39.1 °F /  3.9 °C 30.01in /  1016.1hPa North 1.2mph /  1.9km/h 1.2mph /  1.9km/h 71% 0.00in /  0mm WeatherDisplay:10.37 W/m2 CLR
09:58 48.6 °F /  9.2 °C 38.9 °F /  3.8 °C 30.00in /  1015.8hPa NE 3.5mph /  5.6km/h 3.5mph /  5.6km/h 69% 0.00in /  0mm WeatherDisplay:10.37 W/m2 CLR
10:03 48.8 °F /  9.3 °C 38.7 °F /  3.7 °C 30.03in /  1016.8hPa ENE 1.2mph /  1.9km/h 1.2mph /  1.9km/h 68% 0.00in /  0mm WeatherDisplay:10.37 W/m2 CLR
10:08 49.3 °F /  9.6 °C 39.6 °F /  4.2 °C 30.03in /  1016.8hPa East 1.2mph /  1.9km/h   69% 0.00in /  0mm WeatherDisplay:10.37 W/m2 CLR
10:13 50.2 °F /  10.1 °C 38.9 °F /  3.8 °C 30.02in /  1016.5hPa East 3.5mph /  5.6km/h 3.5mph /  5.6km/h 65% 0.00in /  0mm WeatherDisplay:10.37 W/m2 CLR
10:18 50.6 °F /  10.3 °C 39.7 °F /  4.3 °C 30.02in /  1016.5hPa East 3.5mph /  5.6km/h 3.5mph /  5.6km/h 66% 0.00in /  0mm WeatherDisplay:10.37 W/m2 CLR
10:23 50.7 °F /  10.4 °C 39.4 °F /  4.1 °C 30.01in /  1016.1hPa East 5.8mph /  9.3km/h 5.8mph /  9.3km/h 65% 0.00in /  0mm WeatherDisplay:10.37 W/m2 CLR
10:28 50.9 °F /  10.5 °C 39.1 °F /  3.9 °C 30.01in /  1016.1hPa East 2.3mph /  3.7km/h 2.3mph /  3.7km/h 64% 0.00in /  0mm WeatherDisplay:10.37 W/m2 CLR
10:33 51.2 °F /  10.7 °C 39.0 °F /  3.9 °C 30.01in /  1016.1hPa East 3.5mph /  5.6km/h 3.5mph /  5.6km/h 63% 0.00in /  0mm WeatherDisplay:10.37 W/m2 CLR
10:38 51.4 °F /  10.8 °C 38.8 °F /  3.8 °C 30.01in /  1016.1hPa SSE 5.8mph /  9.3km/h 5.8mph /  9.3km/h 62% 0.00in /  0mm WeatherDisplay:10.37 W/m2 CLR
10:43 51.5 °F /  10.8 °C 39.3 °F /  4.1 °C 30.00in /  1015.8hPa South 4.0mph /  6.4km/h 4.0mph /  6.4km/h 63% 0.00in /  0mm WeatherDisplay:10.37 W/m2 CLR
10:48 51.9 °F /  11.1 °C 39.7 °F /  4.3 °C 30.00in /  1015.8hPa SSE 3.0mph /  4.8km/h 3.0mph /  4.8km/h 63% 0.00in /  0mm WeatherDisplay:10.37 W/m2 CLR
10:53 52.2 °F /  11.2 °C 39.1 °F /  3.9 °C 29.99in /  1015.5hPa SSE 4.0mph /  6.4km/h 4.2mph /  6.8km/h 61% 0.00in /  0mm WeatherDisplay:10.37 W/m2 CLR
10:58 52.1 °F /  11.2 °C 38.6 °F /  3.7 °C 29.99in /  1015.5hPa SSE 4.6mph /  7.4km/h 4.6mph /  7.4km/h 60% 0.00in /  0mm WeatherDisplay:10.37 W/m2 CLR
11:03 52.1 °F /  11.2 °C 39.1 °F /  3.9 °C 30.01in /  1016.1hPa ESE 6.0mph /  9.7km/h 6.0mph /  9.7km/h 61% 0.00in /  0mm WeatherDisplay:10.37 W/m2 CLR
11:08 52.1 °F /  11.2 °C 39.1 °F /  3.9 °C 30.01in /  1016.1hPa ESE 5.8mph /  9.3km/h 5.8mph /  9.3km/h 61% 0.00in /  0mm WeatherDisplay:10.37 W/m2 CLR
11:13 52.1 °F /  11.2 °C 38.2 °F /  3.4 °C 30.00in /  1015.8hPa ESE 1.2mph /  1.9km/h   59% 0.00in /  0mm WeatherDisplay:10.37 W/m2 CLR
11:18 52.4 °F /  11.3 °C 38.0 °F /  3.3 °C 30.00in /  1015.8hPa ESE 5.8mph /  9.3km/h 5.8mph /  9.3km/h 58% 0.00in /  0mm WeatherDisplay:10.37 W/m2 CLR
11:23 52.8 °F /  11.6 °C 38.0 °F /  3.3 °C 29.99in /  1015.5hPa South 4.0mph /  6.4km/h 4.0mph /  6.4km/h 57% 0.00in /  0mm WeatherDisplay:10.37 W/m2 CLR
11:28 53.2 °F /  11.8 °C 39.2 °F /  4 °C 29.98in /  1015.1hPa SSE 4.0mph /  6.4km/h 4.0mph /  6.4km/h 59% 0.00in /  0mm WeatherDisplay:10.37 W/m2 CLR
11:33 54.0 °F /  12.2 °C 40.0 °F /  4.4 °C 29.98in /  1015.1hPa SSE 7.0mph /  11.3km/h 7.0mph /  11.3km/h 59% 0.00in /  0mm WeatherDisplay:10.37 W/m2 CLR
11:38 54.4 °F /  12.4 °C 39.5 °F /  4.2 °C 29.98in /  1015.1hPa SE 7.0mph /  11.3km/h 7.0mph /  11.3km/h 57% 0.00in /  0mm WeatherDisplay:10.37 W/m2 CLR
11:43 54.5 °F /  12.5 °C 38.7 °F /  3.7 °C 29.97in /  1014.8hPa SSE 6.9mph /  11.1km/h 6.9mph /  11.1km/h 55% 0.00in /  0mm WeatherDisplay:10.37 W/m2 CLR
11:48 54.5 °F /  12.5 °C 39.6 °F /  4.2 °C 29.96in /  1014.4hPa South 5.8mph /  9.3km/h 5.8mph /  9.3km/h 57% 0.00in /  0mm WeatherDisplay:10.37 W/m2 CLR
11:53 54.8 °F /  12.7 °C 39.4 °F /  4.1 °C 29.96in /  1014.4hPa SE 6.0mph /  9.7km/h 6.0mph /  9.7km/h 56% 0.00in /  0mm WeatherDisplay:10.37 W/m2 CLR
11:58 55.0 °F /  12.8 °C 39.1 °F /  3.9 °C 29.96in /  1014.4hPa SSE 4.6mph /  7.4km/h 4.6mph /  7.4km/h 55% 0.00in /  0mm WeatherDisplay:10.37 W/m2 CLR
12:03 55.3 °F /  12.9 °C 39.9 °F /  4.4 °C 29.97in /  1014.8hPa SE 2.3mph /  3.7km/h 2.3mph /  3.7km/h 56% 0.00in /  0mm WeatherDisplay:10.37 W/m2 CLR
12:08 55.5 °F /  13.1 °C 39.6 °F /  4.2 °C 29.97in /  1014.8hPa South 6.9mph /  11.1km/h 6.9mph /  11.1km/h 55% 0.00in /  0mm WeatherDisplay:10.37 W/m2 CLR
12:13 55.5 °F /  13.1 °C 40.0 °F /  4.4 °C 29.97in /  1014.8hPa SSE 9.2mph /  14.8km/h 9.2mph /  14.8km/h 56% 0.00in /  0mm WeatherDisplay:10.37 W/m2 CLR
12:18 55.9 °F /  13.3 °C 40.9 °F /  4.9 °C 29.96in /  1014.4hPa South 6.9mph /  11.1km/h 6.9mph /  11.1km/h 57% 0.00in /  0mm WeatherDisplay:10.37 W/m2 CLR
12:23 56.2 °F /  13.4 °C 40.2 °F /  4.6 °C 29.95in /  1014.1hPa South 5.8mph /  9.3km/h 5.8mph /  9.3km/h 55% 0.00in /  0mm WeatherDisplay:10.37 W/m2 CLR
12:28 56.2 °F /  13.4 °C 40.7 °F /  4.8 °C 29.96in /  1014.4hPa SE 6.9mph /  11.1km/h 6.9mph /  11.1km/h 56% 0.00in /  0mm WeatherDisplay:10.37 W/m2 CLR
12:33 56.0 °F /  13.3 °C 40.1 °F /  4.5 °C 29.96in /  1014.4hPa SE 10.4mph /  16.7km/h 10.4mph /  16.7km/h 55% 0.00in /  0mm WeatherDisplay:10.37 W/m2 CLR
12:38 56.2 °F /  13.4 °C 41.2 °F /  5.1 °C 29.95in /  1014.1hPa ESE 6.9mph /  11.1km/h 6.9mph /  11.1km/h 57% 0.00in /  0mm WeatherDisplay:10.37 W/m2 CLR
12:43 56.2 °F /  13.4 °C 40.7 °F /  4.8 °C 29.95in /  1014.1hPa SE 9.2mph /  14.8km/h 9.2mph /  14.8km/h 56% 0.00in /  0mm WeatherDisplay:10.37 W/m2 CLR
12:48 56.4 °F /  13.6 °C 40.4 °F /  4.7 °C 29.94in /  1013.8hPa SSE 5.8mph /  9.3km/h 5.8mph /  9.3km/h 55% 0.00in /  0mm WeatherDisplay:10.37 W/m2 CLR
12:53 56.9 °F /  13.8 °C 40.4 °F /  4.7 °C 29.93in /  1013.4hPa SSE 3.5mph /  5.6km/h 3.5mph /  5.6km/h 54% 0.00in /  0mm WeatherDisplay:10.37 W/m2 CLR
12:54 56.9 °F /  13.8 °C 40.4 °F /  4.7 °C 29.93in /  1013.4hPa SSE 3.5mph /  5.6km/h 3.5mph /  5.6km/h 54% 0.00in /  0mm WeatherDisplay:10.37 W/m2 CLR
12:59 57.1 °F /  13.9 °C 41.1 °F /  5.1 °C 29.92in /  1013.1hPa ESE 6.9mph /  11.1km/h 6.9mph /  11.1km/h 55% 0.00in /  0mm WeatherDisplay:10.37 W/m2 CLR
13:04 57.1 °F /  13.9 °C 41.5 °F /  5.3 °C 29.93in /  1013.4hPa SE 6.9mph /  11.1km/h 6.9mph /  11.1km/h 56% 0.00in /  0mm WeatherDisplay:10.37 W/m2 CLR
13:09 57.3 °F /  14.1 °C 42.2 °F /  5.7 °C 29.92in /  1013.1hPa ESE 5.8mph /  9.3km/h 5.8mph /  9.3km/h 57% 0.00in /  0mm WeatherDisplay:10.37 W/m2 CLR
13:14 57.5 °F /  14.2 °C 41.9 °F /  5.5 °C 29.92in /  1013.1hPa SE 7.0mph /  11.3km/h 7.0mph /  11.3km/h 56% 0.00in /  0mm WeatherDisplay:10.37 W/m2 CLR
13:19 57.8 °F /  14.3 °C 41.7 °F /  5.4 °C 29.92in /  1013.1hPa SSE 11.5mph /  18.5km/h 11.5mph /  18.5km/h 55% 0.00in /  0mm WeatherDisplay:10.37 W/m2 CLR
13:24 58.0 °F /  14.4 °C 42.4 °F /  5.8 °C 29.92in /  1013.1hPa SE 6.0mph /  9.7km/h 6.0mph /  9.7km/h 56% 0.00in /  0mm WeatherDisplay:10.37 W/m2 CLR
13:29 58.1 °F /  14.5 °C 42.0 °F /  5.6 °C 29.92in /  1013.1hPa SSW 6.9mph /  11.1km/h 6.9mph /  11.1km/h 55% 0.00in /  0mm WeatherDisplay:10.37 W/m2 CLR
13:34 58.6 °F /  14.8 °C 42.5 °F /  5.8 °C 29.90in /  1012.4hPa South 5.8mph /  9.3km/h 5.8mph /  9.3km/h 55% 0.00in /  0mm WeatherDisplay:10.37 W/m2 CLR
13:39 59.0 °F /  15 °C 42.4 °F /  5.8 °C 29.90in /  1012.4hPa SSE 10.4mph /  16.7km/h 10.4mph /  16.7km/h 54% 0.00in /  0mm WeatherDisplay:10.37 W/m2 CLR
13:44 59.1 °F /  15.1 °C 42.9 °F /  6.1 °C 29.89in /  1012.1hPa East 5.8mph /  9.3km/h 5.8mph /  9.3km/h 55% 0.00in /  0mm WeatherDisplay:10.37 W/m2 CLR
13:49 59.0 °F /  15 °C 42.4 °F /  5.8 °C 29.89in /  1012.1hPa SSE 8.1mph /  13km/h 8.1mph /  13km/h 54% 0.00in /  0mm WeatherDisplay:10.37 W/m2 CLR
13:54 59.1 °F /  15.1 °C 43.4 °F /  6.3 °C 29.89in /  1012.1hPa SE 5.0mph /  8km/h 5.0mph /  8km/h 56% 0.00in /  0mm WeatherDisplay:10.37 W/m2 CLR
13:59 59.5 °F /  15.3 °C 42.8 °F /  6 °C 29.89in /  1012.1hPa SE 6.9mph /  11.1km/h 6.9mph /  11.1km/h 54% 0.00in /  0mm WeatherDisplay:10.37 W/m2 CLR
14:04 59.4 °F /  15.2 °C 42.7 °F /  5.9 °C 29.89in /  1012.1hPa ESE 6.9mph /  11.1km/h 6.9mph /  11.1km/h 54% 0.00in /  0mm WeatherDisplay:10.37 W/m2 CLR
14:09 59.5 °F /  15.3 °C 43.8 °F /  6.6 °C 29.89in /  1012.1hPa ESE 5.8mph /  9.3km/h 5.8mph /  9.3km/h 56% 0.00in /  0mm WeatherDisplay:10.37 W/m2 CLR
14:14 60.0 °F /  15.6 °C 43.3 °F /  6.3 °C 29.88in /  1011.7hPa ESE 6.9mph /  11.1km/h 6.9mph /  11.1km/h 54% 0.00in /  0mm WeatherDisplay:10.37 W/m2 CLR
14:19 60.1 °F /  15.6 °C 42.9 °F /  6.1 °C 29.88in /  1011.7hPa SSE 4.6mph /  7.4km/h 4.6mph /  7.4km/h 53% 0.00in /  0mm WeatherDisplay:10.37 W/m2 CLR
14:24 60.4 °F /  15.8 °C 43.2 °F /  6.2 °C 29.88in /  1011.7hPa SE 10.0mph /  16.1km/h 10.0mph /  16.1km/h 53% 0.00in /  0mm WeatherDisplay:10.37 W/m2 CLR
14:29 60.4 °F /  15.8 °C 44.6 °F /  7 °C 29.88in /  1011.7hPa South 5.0mph /  8km/h 5.0mph /  8km/h 56% 0.00in /  0mm WeatherDisplay:10.37 W/m2 CLR
14:34 60.4 °F /  15.8 °C 42.7 °F /  5.9 °C 29.87in /  1011.4hPa ENE 5.8mph /  9.3km/h 5.8mph /  9.3km/h 52% 0.00in /  0mm WeatherDisplay:10.37 W/m2 CLR
14:39 60.5 °F /  15.8 °C 43.8 °F /  6.6 °C 29.87in /  1011.4hPa ESE 8.1mph /  13km/h 8.1mph /  13km/h 54% 0.00in /  0mm WeatherDisplay:10.37 W/m2 CLR
14:44 60.5 °F /  15.8 °C 42.3 °F /  5.7 °C 29.87in /  1011.4hPa South 4.6mph /  7.4km/h 4.6mph /  7.4km/h 51% 0.00in /  0mm WeatherDisplay:10.37 W/m2 CLR
14:49 60.7 °F /  15.9 °C 42.5 °F /  5.8 °C 29.87in /  1011.4hPa SE 4.6mph /  7.4km/h 4.6mph /  7.4km/h 51% 0.00in /  0mm WeatherDisplay:10.37 W/m2 CLR
14:54 60.6 °F /  15.9 °C 42.4 °F /  5.8 °C 29.86in /  1011.1hPa ESE 10.4mph /  16.7km/h 10.4mph /  16.7km/h 51% 0.00in /  0mm WeatherDisplay:10.37 W/m2 CLR
14:59 60.7 °F /  15.9 °C 43.0 °F /  6.1 °C 29.86in /  1011.1hPa South 3.5mph /  5.6km/h 3.5mph /  5.6km/h 52% 0.00in /  0mm WeatherDisplay:10.37 W/m2 CLR
15:04 61.1 °F /  16.2 °C 43.3 °F /  6.3 °C 29.85in /  1010.7hPa East 3.5mph /  5.6km/h 3.5mph /  5.6km/h 52% 0.00in /  0mm WeatherDisplay:10.37 W/m2 CLR
15:09 61.4 °F /  16.3 °C 43.6 °F /  6.4 °C 29.85in /  1010.7hPa ESE 6.9mph /  11.1km/h 6.9mph /  11.1km/h 52% 0.00in /  0mm WeatherDisplay:10.37 W/m2 CLR
15:14 61.5 °F /  16.4 °C 42.7 °F /  5.9 °C 29.86in /  1011.1hPa East 5.0mph /  8km/h 5.0mph /  8km/h 50% 0.00in /  0mm WeatherDisplay:10.37 W/m2 CLR
15:19 61.4 °F /  16.3 °C 43.1 °F /  6.2 °C 29.85in /  1010.7hPa ESE 9.2mph /  14.8km/h 9.2mph /  14.8km/h 51% 0.00in /  0mm WeatherDisplay:10.37 W/m2 CLR
15:24 61.3 °F /  16.3 °C 43.0 °F /  6.1 °C 29.85in /  1010.7hPa SSE 3.5mph /  5.6km/h 3.5mph /  5.6km/h 51% 0.00in /  0mm WeatherDisplay:10.37 W/m2 CLR
15:29 61.4 °F /  16.3 °C 43.6 °F /  6.4 °C 29.85in /  1010.7hPa East 6.9mph /  11.1km/h 6.9mph /  11.1km/h 52% 0.00in /  0mm WeatherDisplay:10.37 W/m2 CLR
15:34 61.3 °F /  16.3 °C 42.0 °F /  5.6 °C 29.85in /  1010.7hPa East 3.5mph /  5.6km/h 3.5mph /  5.6km/h 49% 0.00in /  0mm WeatherDisplay:10.37 W/m2 CLR
15:39 61.4 °F /  16.3 °C 42.1 °F /  5.6 °C 29.85in /  1010.7hPa SE 3.5mph /  5.6km/h 3.5mph /  5.6km/h 49% 0.00in /  0mm WeatherDisplay:10.37 W/m2 CLR
15:44 61.7 °F /  16.5 °C 44.4 °F /  6.9 °C 29.85in /  1010.7hPa ESE 3.0mph /  4.8km/h 3.0mph /  4.8km/h 53% 0.00in /  0mm WeatherDisplay:10.37 W/m2 CLR
15:49 61.9 °F /  16.6 °C 44.1 °F /  6.7 °C 29.85in /  1010.7hPa ENE 5.8mph /  9.3km/h 5.8mph /  9.3km/h 52% 0.00in /  0mm WeatherDisplay:10.37 W/m2 CLR
15:54 61.8 °F /  16.6 °C 43.5 °F /  6.4 °C 29.85in /  1010.7hPa East 3.5mph /  5.6km/h 3.5mph /  5.6km/h 51% 0.00in /  0mm WeatherDisplay:10.37 W/m2 CLR
15:59 61.8 °F /  16.6 °C 43.0 °F /  6.1 °C 29.85in /  1010.7hPa ESE 5.8mph /  9.3km/h 5.8mph /  9.3km/h 50% 0.00in /  0mm WeatherDisplay:10.37 W/m2 CLR
16:04 61.8 °F /  16.6 °C 43.0 °F /  6.1 °C 29.85in /  1010.7hPa East 5.0mph /  8km/h 5.0mph /  8km/h 50% 0.00in /  0mm WeatherDisplay:10.37 W/m2 CLR
16:09 62.0 °F /  16.7 °C 43.7 °F /  6.5 °C 29.85in /  1010.7hPa ESE 5.8mph /  9.3km/h 5.8mph /  9.3km/h 51% 0.00in /  0mm WeatherDisplay:10.37 W/m2 CLR
16:14 62.0 °F /  16.7 °C 43.7 °F /  6.5 °C 29.85in /  1010.7hPa SSE 5.0mph /  8km/h 5.0mph /  8km/h 51% 0.00in /  0mm WeatherDisplay:10.37 W/m2 CLR
16:19 62.0 °F /  16.7 °C 43.1 °F /  6.2 °C 29.85in /  1010.7hPa SSE 3.5mph /  5.6km/h 3.5mph /  5.6km/h 50% 0.00in /  0mm WeatherDisplay:10.37 W/m2 CLR
16:24 61.9 °F /  16.6 °C 43.6 °F /  6.4 °C 29.85in /  1010.7hPa ESE 3.5mph /  5.6km/h 3.5mph /  5.6km/h 51% 0.00in /  0mm WeatherDisplay:10.37 W/m2 CLR
16:29 61.9 °F /  16.6 °C 44.1 °F /  6.7 °C 29.84in /  1010.4hPa ESE 2.3mph /  3.7km/h 2.3mph /  3.7km/h 52% 0.00in /  0mm WeatherDisplay:10.37 W/m2 CLR
16:34 62.0 °F /  16.7 °C 43.7 °F /  6.5 °C 29.85in /  1010.7hPa ESE 2.3mph /  3.7km/h 2.3mph /  3.7km/h 51% 0.00in /  0mm WeatherDisplay:10.37 W/m2 CLR
16:39 61.9 °F /  16.6 °C 43.6 °F /  6.4 °C 29.85in /  1010.7hPa East 3.5mph /  5.6km/h 3.5mph /  5.6km/h 51% 0.00in /  0mm WeatherDisplay:10.37 W/m2 CLR
16:44 61.8 °F /  16.6 °C 43.0 °F /  6.1 °C 29.84in /  1010.4hPa East 3.5mph /  5.6km/h 3.5mph /  5.6km/h 50% 0.00in /  0mm WeatherDisplay:10.37 W/m2 CLR
16:49 61.9 °F /  16.6 °C 43.6 °F /  6.4 °C 29.85in /  1010.7hPa ESE 4.6mph /  7.4km/h 4.6mph /  7.4km/h 51% 0.00in /  0mm WeatherDisplay:10.37 W/m2 CLR
16:54 61.9 °F /  16.6 °C 43.6 °F /  6.4 °C 29.84in /  1010.4hPa ESE 3.5mph /  5.6km/h 3.5mph /  5.6km/h 51% 0.00in /  0mm WeatherDisplay:10.37 W/m2 CLR
16:59 61.9 °F /  16.6 °C 43.6 °F /  6.4 °C 29.84in /  1010.4hPa Calm     51% 0.00in /  0mm WeatherDisplay:10.37 W/m2 CLR
17:04 61.9 °F /  16.6 °C 43.0 °F /  6.1 °C 29.85in /  1010.7hPa ESE 4.6mph /  7.4km/h 4.6mph /  7.4km/h 50% 0.00in /  0mm WeatherDisplay:10.37 W/m2 CLR
17:09 61.9 °F /  16.6 °C 42.5 °F /  5.8 °C 29.85in /  1010.7hPa ESE 1.2mph /  1.9km/h 1.2mph /  1.9km/h 49% 0.00in /  0mm WeatherDisplay:10.37 W/m2 CLR
17:14 61.8 °F /  16.6 °C 43.0 °F /  6.1 °C 29.85in /  1010.7hPa ESE 2.3mph /  3.7km/h 2.3mph /  3.7km/h 50% 0.00in /  0mm WeatherDisplay:10.37 W/m2 CLR
17:19 61.8 °F /  16.6 °C 42.4 °F /  5.8 °C 29.84in /  1010.4hPa ESE 1.2mph /  1.9km/h   49% 0.00in /  0mm WeatherDisplay:10.37 W/m2 CLR
17:24 61.7 °F /  16.5 °C 42.9 °F /  6.1 °C 29.85in /  1010.7hPa ESE 2.3mph /  3.7km/h 2.4mph /  3.9km/h 50% 0.00in /  0mm WeatherDisplay:10.37 W/m2 CLR
17:29 61.7 °F /  16.5 °C 42.9 °F /  6.1 °C 29.85in /  1010.7hPa East 3.5mph /  5.6km/h 3.5mph /  5.6km/h 50% 0.00in /  0mm WeatherDisplay:10.37 W/m2 CLR
17:34 61.6 °F /  16.4 °C 43.3 °F /  6.3 °C 29.85in /  1010.7hPa Calm     51% 0.00in /  0mm WeatherDisplay:10.37 W/m2 CLR
17:39 61.5 °F /  16.4 °C 42.7 °F /  5.9 °C 29.85in /  1010.7hPa East 2.3mph /  3.7km/h 2.3mph /  3.7km/h 50% 0.00in /  0mm WeatherDisplay:10.37 W/m2 CLR
17:44 61.4 °F /  16.3 °C 43.1 °F /  6.2 °C 29.85in /  1010.7hPa East 1.0mph /  1.6km/h   51% 0.00in /  0mm WeatherDisplay:10.37 W/m2 CLR
17:49 61.2 °F /  16.2 °C 42.9 °F /  6.1 °C 29.85in /  1010.7hPa East 1.2mph /  1.9km/h   51% 0.00in /  0mm WeatherDisplay:10.37 W/m2 CLR
17:54 61.1 °F /  16.2 °C 43.3 °F /  6.3 °C 29.85in /  1010.7hPa Calm     52% 0.00in /  0mm WeatherDisplay:10.37 W/m2 CLR
17:59 60.9 °F /  16.1 °C 43.1 °F /  6.2 °C 29.85in /  1010.7hPa Calm     52% 0.00in /  0mm WeatherDisplay:10.37 W/m2 CLR
18:04 60.6 °F /  15.9 °C 42.9 °F /  6.1 °C 29.85in /  1010.7hPa Calm     52% 0.00in /  0mm WeatherDisplay:10.37 W/m2 CLR
18:09 60.2 °F /  15.7 °C 42.5 °F /  5.8 °C 29.86in /  1011.1hPa Calm     52% 0.00in /  0mm WeatherDisplay:10.37 W/m2 CLR
18:14 59.7 °F /  15.4 °C 42.5 °F /  5.8 °C 29.86in /  1011.1hPa Calm     53% 0.00in /  0mm WeatherDisplay:10.37 W/m2 CLR
18:20 59.1 °F /  15.1 °C 42.9 °F /  6.1 °C 29.86in /  1011.1hPa Calm     55% 0.00in /  0mm WeatherDisplay:10.37 W/m2 CLR
18:25 59.0 °F /  15 °C 43.3 °F /  6.3 °C 29.86in /  1011.1hPa Calm     56% 0.00in /  0mm WeatherDisplay:10.37 W/m2 CLR
18:30 58.4 °F /  14.7 °C 42.8 °F /  6 °C 29.87in /  1011.4hPa Calm     56% 0.00in /  0mm WeatherDisplay:10.37 W/m2 CLR
18:35 58.0 °F /  14.4 °C 42.4 °F /  5.8 °C 29.87in /  1011.4hPa Calm     56% 0.00in /  0mm WeatherDisplay:10.37 W/m2 CLR
18:40 57.5 °F /  14.2 °C 42.8 °F /  6 °C 29.88in /  1011.7hPa Calm     58% 0.00in /  0mm WeatherDisplay:10.37 W/m2 CLR
18:45 57.0 °F /  13.9 °C 42.4 °F /  5.8 °C 29.88in /  1011.7hPa Calm     58% 0.00in /  0mm WeatherDisplay:10.37 W/m2 CLR
18:50 56.5 °F /  13.6 °C 42.3 °F /  5.7 °C 29.87in /  1011.4hPa Calm     59% 0.00in /  0mm WeatherDisplay:10.37 W/m2 CLR
18:55 56.1 °F /  13.4 °C 42.4 °F /  5.8 °C 29.89in /  1012.1hPa Calm     60% 0.00in /  0mm WeatherDisplay:10.37 W/m2 CLR
19:00 55.5 °F /  13.1 °C 42.3 °F /  5.7 °C 29.89in /  1012.1hPa Calm     61% 0.00in /  0mm WeatherDisplay:10.37 W/m2 CLR
19:05 55.0 °F /  12.8 °C 42.6 °F /  5.9 °C 29.88in /  1011.7hPa Calm     63% 0.00in /  0mm WeatherDisplay:10.37 W/m2 CLR
19:10 54.4 °F /  12.4 °C 42.5 °F /  5.8 °C 29.88in /  1011.7hPa Calm     64% 0.00in /  0mm WeatherDisplay:10.37 W/m2 CLR
19:15 53.8 °F /  12.1 °C 42.3 °F /  5.7 °C 29.89in /  1012.1hPa Calm     65% 0.00in /  0mm WeatherDisplay:10.37 W/m2 CLR
19:20 53.3 °F /  11.8 °C 42.2 °F /  5.7 °C 29.89in /  1012.1hPa Calm     66% 0.00in /  0mm WeatherDisplay:10.37 W/m2 CLR
19:25 52.9 °F /  11.6 °C 42.2 °F /  5.7 °C 29.89in /  1012.1hPa Calm     67% 0.00in /  0mm WeatherDisplay:10.37 W/m2 CLR
19:30 52.4 °F /  11.3 °C 42.5 °F /  5.8 °C 29.89in /  1012.1hPa Calm     69% 0.00in /  0mm WeatherDisplay:10.37 W/m2 CLR
19:35 52.0 °F /  11.1 °C 42.5 °F /  5.8 °C 29.91in /  1012.8hPa Calm     70% 0.00in /  0mm WeatherDisplay:10.37 W/m2 CLR
19:40 51.6 °F /  10.9 °C 42.5 °F /  5.8 °C 29.91in /  1012.8hPa Calm     71% 0.00in /  0mm WeatherDisplay:10.37 W/m2 CLR
19:45 51.3 °F /  10.7 °C 42.6 °F /  5.9 °C 29.90in /  1012.4hPa Calm     72% 0.00in /  0mm WeatherDisplay:10.37 W/m2 CLR
19:50 51.0 °F /  10.6 °C 42.3 °F /  5.7 °C 29.90in /  1012.4hPa Calm     72% 0.00in /  0mm WeatherDisplay:10.37 W/m2 CLR
19:55 50.8 °F /  10.4 °C 42.5 °F /  5.8 °C 29.90in /  1012.4hPa East 1.2mph /  1.9km/h 1.2mph /  1.9km/h 73% 0.00in /  0mm WeatherDisplay:10.37 W/m2 CLR
20:00 50.8 °F /  10.4 °C 42.5 °F /  5.8 °C 29.90in /  1012.4hPa East 1.2mph /  1.9km/h   73% 0.00in /  0mm WeatherDisplay:10.37 W/m2 CLR
20:05 50.7 °F /  10.4 °C 42.4 °F /  5.8 °C 29.86in /  1011.1hPa Calm     73% 0.00in /  0mm WeatherDisplay:10.37 W/m2 CLR
20:10 50.6 °F /  10.3 °C 42.3 °F /  5.7 °C 29.86in /  1011.1hPa Calm     73% 0.00in /  0mm WeatherDisplay:10.37 W/m2 CLR
20:15 50.5 °F /  10.3 °C 42.2 °F /  5.7 °C 29.86in /  1011.1hPa Calm     73% 0.00in /  0mm WeatherDisplay:10.37 W/m2 CLR
20:20 50.4 °F /  10.2 °C 42.4 °F /  5.8 °C 29.86in /  1011.1hPa Calm     74% 0.00in /  0mm WeatherDisplay:10.37 W/m2 CLR
20:25 50.2 °F /  10.1 °C 42.2 °F /  5.7 °C 29.86in /  1011.1hPa Calm     74% 0.00in /  0mm WeatherDisplay:10.37 W/m2 CLR
20:30 49.8 °F /  9.9 °C 41.5 °F /  5.3 °C 29.86in /  1011.1hPa Calm     73% 0.00in /  0mm WeatherDisplay:10.37 W/m2 CLR
20:35 49.2 °F /  9.6 °C 41.3 °F /  5.2 °C 29.87in /  1011.4hPa Calm     74% 0.00in /  0mm WeatherDisplay:10.37 W/m2 CLR
20:40 48.8 °F /  9.3 °C 41.6 °F /  5.3 °C 29.87in /  1011.4hPa Calm     76% 0.00in /  0mm WeatherDisplay:10.37 W/m2 CLR
20:45 48.6 °F /  9.2 °C 41.7 °F /  5.4 °C 29.87in /  1011.4hPa Calm     77% 0.00in /  0mm WeatherDisplay:10.37 W/m2 CLR
20:50 48.5 °F /  9.2 °C 41.3 °F /  5.2 °C 29.87in /  1011.4hPa Calm     76% 0.00in /  0mm WeatherDisplay:10.37 W/m2 CLR
20:55 48.2 °F /  9 °C 41.3 °F /  5.2 °C 29.87in /  1011.4hPa Calm     77% 0.00in /  0mm WeatherDisplay:10.37 W/m2 CLR
20:58 48.1 °F /  8.9 °C 41.6 °F /  5.3 °C 29.87in /  1011.4hPa Calm     78% 0.00in /  0mm WeatherDisplay:10.37 W/m2 CLR
21:00 48.0 °F /  8.9 °C 41.8 °F /  5.4 °C 29.87in /  1011.4hPa Calm     79% 0.00in /  0mm WeatherDisplay:10.37 W/m2 CLR
21:05 47.9 °F /  8.8 °C 41.7 °F /  5.4 °C 29.86in /  1011.1hPa Calm     79% 0.00in /  0mm WeatherDisplay:10.37 W/m2 CLR
21:10 47.8 °F /  8.8 °C 41.9 °F /  5.5 °C 29.86in /  1011.1hPa Calm     80% 0.00in /  0mm WeatherDisplay:10.37 W/m2 CLR
21:15 47.7 °F /  8.7 °C 42.2 °F /  5.7 °C 29.86in /  1011.1hPa Calm     81% 0.00in /  0mm WeatherDisplay:10.37 W/m2 CLR
21:20 47.7 °F /  8.7 °C 42.2 °F /  5.7 °C 29.86in /  1011.1hPa Calm     81% 0.00in /  0mm WeatherDisplay:10.37 W/m2 CLR
21:22 47.7 °F /  8.7 °C 42.2 °F /  5.7 °C 29.86in /  1011.1hPa Calm     81% 0.00in /  0mm WeatherDisplay:10.37 W/m2 CLR
21:27 47.6 °F /  8.7 °C 42.4 °F /  5.8 °C 29.86in /  1011.1hPa Calm     82% 0.00in /  0mm WeatherDisplay:10.37 W/m2 CLR
21:32 47.6 °F /  8.7 °C 42.4 °F /  5.8 °C 29.86in /  1011.1hPa Calm     82% 0.00in /  0mm WeatherDisplay:10.37 W/m2 CLR
21:37 47.7 °F /  8.7 °C 42.5 °F /  5.8 °C 29.86in /  1011.1hPa Calm     82% 0.00in /  0mm WeatherDisplay:10.37 W/m2 CLR
21:42 47.8 °F /  8.8 °C 42.6 °F /  5.9 °C 29.86in /  1011.1hPa North 2.3mph /  3.7km/h 2.3mph /  3.7km/h 82% 0.00in /  0mm WeatherDisplay:10.37 W/m2 CLR
21:47 48.0 °F /  8.9 °C 42.4 °F /  5.8 °C 29.86in /  1011.1hPa Calm     81% 0.00in /  0mm WeatherDisplay:10.37 W/m2 CLR
21:52 48.2 °F /  9 °C 42.6 °F /  5.9 °C 29.86in /  1011.1hPa Calm   0.1mph /  0.2km/h 81% 0.00in /  0mm WeatherDisplay:10.37 W/m2 CLR
21:57 48.3 °F /  9.1 °C 42.7 °F /  5.9 °C 29.86in /  1011.1hPa North 1.2mph /  1.9km/h 1.2mph /  1.9km/h 81% 0.00in /  0mm WeatherDisplay:10.37 W/m2 CLR
22:02 48.4 °F /  9.1 °C 42.8 °F /  6 °C 29.84in /  1010.4hPa North 1.2mph /  1.9km/h 1.2mph /  1.9km/h 81% 0.00in /  0mm WeatherDisplay:10.37 W/m2 CLR
22:07 48.3 °F /  9.1 °C 42.7 °F /  5.9 °C 29.84in /  1010.4hPa Calm     81% 0.00in /  0mm WeatherDisplay:10.37 W/m2 CLR
22:12 48.3 °F /  9.1 °C 42.7 °F /  5.9 °C 29.84in /  1010.4hPa North 1.2mph /  1.9km/h 1.2mph /  1.9km/h 81% 0.00in /  0mm WeatherDisplay:10.37 W/m2 CLR
22:17 48.2 °F /  9 °C 42.6 °F /  5.9 °C 29.84in /  1010.4hPa WNW 1.2mph /  1.9km/h   81% 0.00in /  0mm WeatherDisplay:10.37 W/m2 CLR
22:22 48.2 °F /  9 °C 42.6 °F /  5.9 °C 29.83in /  1010hPa NW 1.2mph /  1.9km/h 1.2mph /  1.9km/h 81% 0.00in /  0mm WeatherDisplay:10.37 W/m2 CLR
22:27 48.1 °F /  8.9 °C 42.2 °F /  5.7 °C 29.83in /  1010hPa Calm     80% 0.00in /  0mm WeatherDisplay:10.37 W/m2 CLR
22:32 48.0 °F /  8.9 °C 42.1 °F /  5.6 °C 29.83in /  1010hPa NW 2.0mph /  3.2km/h 2.0mph /  3.2km/h 80% 0.00in /  0mm WeatherDisplay:10.37 W/m2 CLR
22:37 48.0 °F /  8.9 °C 42.1 °F /  5.6 °C 29.83in /  1010hPa NW 1.2mph /  1.9km/h 1.2mph /  1.9km/h 80% 0.00in /  0mm WeatherDisplay:10.37 W/m2 CLR
22:42 47.9 °F /  8.8 °C 42.0 °F /  5.6 °C 29.83in /  1010hPa NW 1.2mph /  1.9km/h 1.2mph /  1.9km/h 80% 0.00in /  0mm WeatherDisplay:10.37 W/m2 CLR
22:47 47.8 °F /  8.8 °C 41.6 °F /  5.3 °C 29.82in /  1009.7hPa Calm     79% 0.00in /  0mm WeatherDisplay:10.37 W/m2 CLR
22:52 47.7 °F /  8.7 °C 41.5 °F /  5.3 °C 29.82in /  1009.7hPa NW 1.2mph /  1.9km/h 1.2mph /  1.9km/h 79% 0.00in /  0mm WeatherDisplay:10.37 W/m2 CLR
22:57 47.5 °F /  8.6 °C 41.3 °F /  5.2 °C 29.82in /  1009.7hPa Calm     79% 0.00in /  0mm WeatherDisplay:10.37 W/m2 CLR
23:02 47.2 °F /  8.4 °C 41.0 °F /  5 °C 29.81in /  1009.4hPa Calm     79% 0.00in /  0mm WeatherDisplay:10.37 W/m2 CLR
23:07 47.0 °F /  8.3 °C 41.1 °F /  5.1 °C 29.81in /  1009.4hPa NW 1.2mph /  1.9km/h 1.2mph /  1.9km/h 80% 0.00in /  0mm WeatherDisplay:10.37 W/m2 CLR
23:12 46.8 °F /  8.2 °C 41.0 °F /  5 °C 29.81in /  1009.4hPa Calm     80% 0.00in /  0mm WeatherDisplay:10.37 W/m2 CLR
23:17 46.6 °F /  8.1 °C 40.8 °F /  4.9 °C 29.80in /  1009hPa Calm     80% 0.00in /  0mm WeatherDisplay:10.37 W/m2 CLR
23:22 46.5 °F /  8.1 °C 41.0 °F /  5 °C 29.80in /  1009hPa Calm     81% 0.00in /  0mm WeatherDisplay:10.37 W/m2 CLR
23:27 46.4 °F /  8 °C 41.2 °F /  5.1 °C 29.80in /  1009hPa NW 1.2mph /  1.9km/h   82% 0.00in /  0mm WeatherDisplay:10.37 W/m2 CLR
23:32 46.4 °F /  8 °C 40.9 °F /  4.9 °C 29.81in /  1009.4hPa Calm     81% 0.00in /  0mm WeatherDisplay:10.37 W/m2 CLR
23:37 46.3 °F /  7.9 °C 41.1 °F /  5.1 °C 29.81in /  1009.4hPa Calm     82% 0.00in /  0mm WeatherDisplay:10.37 W/m2 CLR
23:42 46.1 °F /  7.8 °C 40.6 °F /  4.8 °C 29.80in /  1009hPa Calm     81% 0.00in /  0mm WeatherDisplay:10.37 W/m2 CLR
23:47 45.8 °F /  7.7 °C 40.3 °F /  4.6 °C 29.81in /  1009.4hPa Calm     81% 0.00in /  0mm WeatherDisplay:10.37 W/m2 CLR
23:52 45.5 °F /  7.5 °C 40.3 °F /  4.6 °C 29.80in /  1009hPa Calm     82% 0.00in /  0mm WeatherDisplay:10.37 W/m2 CLR
23:57 45.2 °F /  7.3 °C 40.0 °F /  4.4 °C 29.80in /  1009hPa Calm     82% 0.00in /  0mm WeatherDisplay:10.37 W/m2 CLR
Windsor Co Weather
Compliments of Weather Underground - 3 mb